createdAt,value
2023-05-25T00:00:14.340Z,443.00
2023-05-25T00:01:14.449Z,443.00
2023-05-25T00:02:14.556Z,440.00
2023-05-25T00:03:14.767Z,441.00
2023-05-25T00:04:14.973Z,442.00
2023-05-25T00:05:14.959Z,444.00
2023-05-25T00:06:15.081Z,445.00
2023-05-25T00:07:15.232Z,445.00
2023-05-25T00:08:15.302Z,446.00
2023-05-25T00:09:15.496Z,446.00
2023-05-25T00:10:15.531Z,446.00
2023-05-25T00:11:15.665Z,447.00
2023-05-25T00:12:15.784Z,446.00
2023-05-25T00:13:15.951Z,450.00
2023-05-25T00:14:16.004Z,450.00
2023-05-25T00:15:16.189Z,450.00
2023-05-25T00:16:16.253Z,453.00
2023-05-25T00:17:16.387Z,455.00
2023-05-25T00:18:16.560Z,457.00
2023-05-25T00:19:16.698Z,456.00
2023-05-25T00:20:16.891Z,456.00
2023-05-25T00:21:16.970Z,455.00
2023-05-25T00:22:17.806Z,455.00
2023-05-25T00:23:17.180Z,457.00
2023-05-25T00:24:17.354Z,455.00
2023-05-25T00:25:17.503Z,455.00
2023-05-25T00:26:17.629Z,456.00
2023-05-25T00:27:17.738Z,455.00
2023-05-25T00:28:17.914Z,454.00
2023-05-25T00:29:18.055Z,453.00
2023-05-25T00:30:18.206Z,452.00
2023-05-25T00:31:18.360Z,453.00
2023-05-25T00:32:18.470Z,453.00
2023-05-25T00:33:18.610Z,456.00
2023-05-25T00:34:18.733Z,458.00
2023-05-25T00:35:18.904Z,456.00
2023-05-25T00:36:19.034Z,457.00
2023-05-25T00:37:19.169Z,456.00
2023-05-25T00:38:19.322Z,455.00
2023-05-25T00:39:19.444Z,457.00
2023-05-25T00:40:19.715Z,457.00
2023-05-25T00:41:19.751Z,455.00
2023-05-25T00:42:19.882Z,451.00
2023-05-25T00:43:20.021Z,448.00
2023-05-25T00:44:20.103Z,448.00
2023-05-25T00:45:20.229Z,445.00
2023-05-25T00:46:20.373Z,447.00
2023-05-25T00:47:20.414Z,452.00
2023-05-25T00:48:20.506Z,452.00
2023-05-25T00:49:20.622Z,451.00
2023-05-25T00:50:20.705Z,452.00
2023-05-25T00:51:20.799Z,451.00
2023-05-25T00:52:20.878Z,451.00
2023-05-25T00:53:20.940Z,452.00
2023-05-25T00:54:21.019Z,452.00
2023-05-25T00:55:21.122Z,452.00
2023-05-25T00:56:21.245Z,453.00
2023-05-25T00:57:21.266Z,454.00
2023-05-25T00:58:21.390Z,455.00
2023-05-25T00:59:21.437Z,456.00
2023-05-25T01:00:21.549Z,456.00
2023-05-25T01:01:21.739Z,458.00
2023-05-25T01:02:21.789Z,461.00
2023-05-25T01:03:22.082Z,457.00
2023-05-25T01:04:21.990Z,456.00
2023-05-25T01:05:22.129Z,458.00
2023-05-25T01:06:22.244Z,456.00
2023-05-25T01:07:22.298Z,458.00
2023-05-25T01:08:22.433Z,455.00
2023-05-25T01:09:22.552Z,451.00
2023-05-25T01:10:22.674Z,452.00
2023-05-25T01:11:22.751Z,453.00
2023-05-25T01:12:22.924Z,453.00
2023-05-25T01:13:22.990Z,453.00
2023-05-25T01:14:23.100Z,452.00
2023-05-25T01:15:23.191Z,449.00
2023-05-25T01:16:23.379Z,450.00
2023-05-25T01:17:23.503Z,452.00
2023-05-25T01:18:23.611Z,452.00
2023-05-25T01:19:23.766Z,451.00
2023-05-25T01:20:23.931Z,452.00
2023-05-25T01:21:24.071Z,450.00
2023-05-25T01:22:24.202Z,452.00
2023-05-25T01:23:24.337Z,451.00
2023-05-25T01:24:24.445Z,452.00
2023-05-25T01:25:24.551Z,452.00
2023-05-25T01:26:24.677Z,453.00
2023-05-25T01:27:24.792Z,453.00
2023-05-25T01:28:24.932Z,452.00
2023-05-25T01:29:25.083Z,452.00
2023-05-25T01:30:25.210Z,449.00
2023-05-25T01:31:25.411Z,454.00
2023-05-25T01:32:25.446Z,452.00
2023-05-25T01:33:25.588Z,452.00
2023-05-25T01:34:25.763Z,450.00
2023-05-25T01:35:25.907Z,449.00
2023-05-25T01:36:26.068Z,448.00
2023-05-25T01:37:26.200Z,447.00
2023-05-25T01:38:26.386Z,447.00
2023-05-25T01:39:26.514Z,447.00
2023-05-25T01:40:26.626Z,446.00
2023-05-25T01:41:26.749Z,448.00
2023-05-25T01:42:26.866Z,450.00
2023-05-25T01:43:27.004Z,449.00
2023-05-25T01:44:27.152Z,449.00
2023-05-25T01:45:27.290Z,452.00
2023-05-25T01:46:27.460Z,450.00
2023-05-25T01:47:27.592Z,449.00
2023-05-25T01:48:27.767Z,451.00
2023-05-25T01:49:27.881Z,452.00
2023-05-25T01:50:28.015Z,454.00
2023-05-25T01:51:28.166Z,455.00
2023-05-25T01:52:28.301Z,457.00
2023-05-25T01:53:28.440Z,458.00
2023-05-25T01:54:28.560Z,457.00
2023-05-25T01:55:28.675Z,456.00
2023-05-25T01:56:28.838Z,454.00
2023-05-25T01:57:28.927Z,451.00
2023-05-25T01:58:29.062Z,452.00
2023-05-25T01:59:29.166Z,455.00
2023-05-25T02:00:29.321Z,453.00
2023-05-25T02:01:29.567Z,454.00
2023-05-25T02:02:29.623Z,455.00
2023-05-25T02:03:29.749Z,455.00
2023-05-25T02:04:29.921Z,457.00
2023-05-25T02:05:29.998Z,457.00
2023-05-25T02:06:30.110Z,456.00
2023-05-25T02:07:30.189Z,456.00
2023-05-25T02:08:30.292Z,454.00
2023-05-25T02:09:30.395Z,454.00
2023-05-25T02:10:30.490Z,455.00
2023-05-25T02:11:30.585Z,455.00
2023-05-25T02:12:30.706Z,449.00
2023-05-25T02:13:30.836Z,451.00
2023-05-25T02:14:30.898Z,452.00
2023-05-25T02:15:30.985Z,454.00
2023-05-25T02:16:31.124Z,452.00
2023-05-25T02:17:31.171Z,448.00
2023-05-25T02:18:31.259Z,451.00
2023-05-25T02:19:31.353Z,451.00
2023-05-25T02:20:31.545Z,455.00
2023-05-25T02:21:31.526Z,457.00
2023-05-25T02:22:31.652Z,459.00
2023-05-25T02:23:31.733Z,458.00
2023-05-25T02:24:31.860Z,454.00
2023-05-25T02:25:31.981Z,454.00
2023-05-25T02:26:32.089Z,453.00
2023-05-25T02:27:32.204Z,455.00
2023-05-25T02:28:32.313Z,458.00
2023-05-25T02:29:32.460Z,458.00
2023-05-25T02:30:32.576Z,458.00
2023-05-25T02:31:32.714Z,459.00
2023-05-25T02:32:32.768Z,459.00
2023-05-25T02:33:32.863Z,459.00
2023-05-25T02:34:32.954Z,462.00
2023-05-25T02:35:33.090Z,461.00
2023-05-25T02:36:33.209Z,459.00
2023-05-25T02:37:33.339Z,460.00
2023-05-25T02:38:33.485Z,456.00
2023-05-25T02:39:33.633Z,456.00
2023-05-25T02:40:33.776Z,457.00
2023-05-25T02:41:33.920Z,456.00
2023-05-25T02:42:34.019Z,457.00
2023-05-25T02:43:34.160Z,456.00
2023-05-25T02:44:34.240Z,458.00
2023-05-25T02:45:34.329Z,460.00
2023-05-25T02:46:35.298Z,458.00
2023-05-25T02:47:34.598Z,453.00
2023-05-25T02:48:34.682Z,457.00
2023-05-25T02:49:34.782Z,455.00
2023-05-25T02:50:34.957Z,456.00
2023-05-25T02:51:35.107Z,457.00
2023-05-25T02:52:35.328Z,457.00
2023-05-25T02:53:35.416Z,453.00
2023-05-25T02:54:35.577Z,451.00
2023-05-25T02:55:35.766Z,453.00
2023-05-25T02:56:35.890Z,452.00
2023-05-25T02:57:36.063Z,450.00
2023-05-25T02:58:36.217Z,449.00
2023-05-25T02:59:36.334Z,450.00
2023-05-25T03:00:36.501Z,452.00
2023-05-25T03:01:36.711Z,454.00
2023-05-25T03:02:36.810Z,458.00
2023-05-25T03:03:36.970Z,460.00
2023-05-25T03:04:37.053Z,460.00
2023-05-25T03:05:37.234Z,460.00
2023-05-25T03:06:37.383Z,462.00
2023-05-25T03:07:37.525Z,460.00
2023-05-25T03:08:37.659Z,466.00
2023-05-25T03:09:37.815Z,468.00
2023-05-25T03:10:37.955Z,467.00
2023-05-25T03:11:38.139Z,467.00
2023-05-25T03:12:38.293Z,465.00
2023-05-25T03:13:38.504Z,466.00
2023-05-25T03:14:38.582Z,462.00
2023-05-25T03:15:38.766Z,461.00
2023-05-25T03:16:38.936Z,465.00
2023-05-25T03:17:39.142Z,464.00
2023-05-25T03:18:39.229Z,463.00
2023-05-25T03:19:39.337Z,462.00
2023-05-25T03:20:39.561Z,462.00
2023-05-25T03:21:39.596Z,461.00
2023-05-25T03:22:39.735Z,462.00
2023-05-25T03:23:39.948Z,459.00
2023-05-25T03:24:40.050Z,459.00
2023-05-25T03:25:40.213Z,458.00
2023-05-25T03:26:40.343Z,460.00
2023-05-25T03:27:40.489Z,456.00
2023-05-25T03:28:40.568Z,455.00
2023-05-25T03:29:40.724Z,456.00
2023-05-25T03:30:40.921Z,456.00
2023-05-25T03:31:41.095Z,457.00
2023-05-25T03:32:41.194Z,459.00
2023-05-25T03:33:41.372Z,460.00
2023-05-25T03:34:41.497Z,457.00
2023-05-25T03:35:41.700Z,457.00
2023-05-25T03:36:41.800Z,459.00
2023-05-25T03:37:41.922Z,458.00
2023-05-25T03:38:42.050Z,459.00
2023-05-25T03:39:42.268Z,461.00
2023-05-25T03:40:42.307Z,461.00
2023-05-25T03:41:42.365Z,459.00
2023-05-25T03:42:42.509Z,457.00
2023-05-25T03:43:42.649Z,459.00
2023-05-25T03:44:42.776Z,459.00
2023-05-25T03:45:43.028Z,460.00
2023-05-25T03:46:43.160Z,460.00
2023-05-25T03:47:43.185Z,456.00
2023-05-25T03:48:43.304Z,459.00
2023-05-25T03:49:43.454Z,458.00
2023-05-25T03:50:43.538Z,458.00
2023-05-25T03:51:43.661Z,456.00
2023-05-25T03:52:43.781Z,456.00
2023-05-25T03:53:43.910Z,454.00
2023-05-25T03:54:44.036Z,454.00
2023-05-25T03:55:44.303Z,454.00
2023-05-25T03:56:44.318Z,456.00
2023-05-25T03:57:44.493Z,455.00
2023-05-25T03:58:44.675Z,449.00
2023-05-25T03:59:44.792Z,446.00
2023-05-25T04:00:44.915Z,444.00
2023-05-25T04:01:45.083Z,438.00
2023-05-25T04:02:45.359Z,445.00
2023-05-25T04:03:45.569Z,446.00
2023-05-25T04:04:45.634Z,446.00
2023-05-25T04:05:46.041Z,446.00
2023-05-25T04:06:45.910Z,449.00
2023-05-25T04:07:45.990Z,444.00
2023-05-25T04:08:46.159Z,448.00
2023-05-25T04:09:46.310Z,446.00
2023-05-25T04:10:46.540Z,449.00
2023-05-25T04:11:46.568Z,449.00
2023-05-25T04:12:46.730Z,448.00
2023-05-25T04:13:47.359Z,447.00
2023-05-25T04:14:47.050Z,449.00
2023-05-25T04:15:47.248Z,452.00
2023-05-25T04:16:47.402Z,454.00
2023-05-25T04:17:47.557Z,452.00
2023-05-25T04:18:47.704Z,440.00
2023-05-25T04:19:47.872Z,438.00
2023-05-25T04:20:48.016Z,446.00
2023-05-25T04:21:48.167Z,446.00
2023-05-25T04:22:48.357Z,443.00
2023-05-25T04:23:48.577Z,442.00
2023-05-25T04:24:48.673Z,442.00
2023-05-25T04:25:48.811Z,440.00
2023-05-25T04:26:49.009Z,440.00
2023-05-25T04:27:49.204Z,442.00
2023-05-25T04:28:49.313Z,437.00
2023-05-25T04:29:49.469Z,437.00
2023-05-25T04:30:49.578Z,436.00
2023-05-25T04:31:49.805Z,436.00
2023-05-25T04:32:49.980Z,438.00
2023-05-25T04:33:50.044Z,453.00
2023-05-25T04:34:50.117Z,444.00
2023-05-25T04:35:50.201Z,441.00
2023-05-25T04:36:50.296Z,443.00
2023-05-25T04:37:50.428Z,441.00
2023-05-25T04:38:50.499Z,440.00
2023-05-25T04:39:50.602Z,437.00
2023-05-25T04:40:50.692Z,437.00
2023-05-25T04:41:50.778Z,433.00
2023-05-25T04:42:50.877Z,435.00
2023-05-25T04:44:05.807Z,431.00
2023-05-25T04:44:52.084Z,435.00
2023-05-25T04:45:51.182Z,434.00
2023-05-25T04:46:51.262Z,434.00
2023-05-25T04:47:51.428Z,429.00
2023-05-25T04:48:51.470Z,429.00
2023-05-25T04:49:51.571Z,428.00
2023-05-25T04:50:51.671Z,434.00
2023-05-25T04:51:51.750Z,434.00
2023-05-25T04:52:51.853Z,434.00
2023-05-25T04:53:51.948Z,434.00
2023-05-25T04:54:52.026Z,435.00
2023-05-25T04:55:52.134Z,435.00
2023-05-25T04:56:52.249Z,432.00
2023-05-25T04:57:52.357Z,432.00
2023-05-25T04:58:52.492Z,439.00
2023-05-25T04:59:52.624Z,433.00
2023-05-25T05:00:52.940Z,435.00
2023-05-25T05:01:52.936Z,434.00
2023-05-25T05:02:53.057Z,434.00
2023-05-25T05:03:53.204Z,433.00
2023-05-25T05:04:53.262Z,429.00
2023-05-25T05:05:53.407Z,428.00
2023-05-25T05:06:53.534Z,430.00
2023-05-25T05:07:53.646Z,427.00
2023-05-25T05:08:53.821Z,429.00
2023-05-25T05:09:53.888Z,428.00
2023-05-25T05:10:54.028Z,427.00
2023-05-25T05:11:54.167Z,430.00
2023-05-25T05:12:54.305Z,431.00
2023-05-25T05:13:54.377Z,433.00
2023-05-25T05:14:54.466Z,432.00
2023-05-25T05:15:54.547Z,435.00
2023-05-25T05:16:54.711Z,437.00
2023-05-25T05:17:54.799Z,436.00
2023-05-25T05:18:54.836Z,432.00
2023-05-25T05:19:54.962Z,423.00
2023-05-25T05:20:55.003Z,428.00
2023-05-25T05:21:55.093Z,425.00
2023-05-25T05:22:55.236Z,427.00
2023-05-25T05:23:55.276Z,427.00
2023-05-25T05:24:55.379Z,427.00
2023-05-25T05:25:55.438Z,429.00
2023-05-25T05:26:58.892Z,438.00
2023-05-25T05:27:55.629Z,436.00
2023-05-25T05:28:55.759Z,435.00
2023-05-25T05:29:55.780Z,433.00
2023-05-25T05:30:57.029Z,436.00
2023-05-25T05:31:56.042Z,434.00
2023-05-25T05:32:56.161Z,429.00
2023-05-25T05:33:56.366Z,432.00
2023-05-25T05:34:56.869Z,429.00
2023-05-25T05:35:56.423Z,431.00
2023-05-25T05:36:58.491Z,426.00
2023-05-25T05:37:56.648Z,428.00
2023-05-25T05:38:57.397Z,427.00
2023-05-25T05:39:56.855Z,437.00
2023-05-25T05:40:57.866Z,439.00
2023-05-25T05:41:57.878Z,433.00
2023-05-25T05:42:57.210Z,432.00
2023-05-25T05:43:57.366Z,432.00
2023-05-25T05:44:57.476Z,432.00
2023-05-25T05:45:57.524Z,431.00
2023-05-25T05:46:57.677Z,426.00
2023-05-25T05:47:57.845Z,425.00
2023-05-25T05:48:58.375Z,432.00
2023-05-25T05:49:57.934Z,440.00
2023-05-25T05:50:58.037Z,428.00
2023-05-25T05:51:58.876Z,436.00
2023-05-25T05:52:58.235Z,445.00
2023-05-25T05:53:58.352Z,434.00
2023-05-25T05:54:58.486Z,430.00
2023-05-25T05:55:58.542Z,430.00
2023-05-25T05:56:58.643Z,426.00
2023-05-25T05:57:58.683Z,422.00
2023-05-25T05:58:58.793Z,429.00
2023-05-25T05:59:58.855Z,426.00
2023-05-25T06:00:58.992Z,435.00
2023-05-25T06:01:59.103Z,431.00
2023-05-25T06:02:59.195Z,432.00
2023-05-25T06:03:59.194Z,434.00
2023-05-25T06:04:59.367Z,435.00
2023-05-25T06:05:59.413Z,433.00
2023-05-25T06:06:59.461Z,450.00
2023-05-25T06:07:59.604Z,439.00
2023-05-25T06:08:59.715Z,424.00
2023-05-25T06:09:59.884Z,429.00
2023-05-25T06:11:00.039Z,424.00
2023-05-25T06:12:00.161Z,423.00
2023-05-25T06:13:00.332Z,425.00
2023-05-25T06:14:00.896Z,418.00
2023-05-25T06:15:00.520Z,411.00
2023-05-25T06:16:00.746Z,414.00
2023-05-25T06:17:00.989Z,422.00
2023-05-25T06:18:00.882Z,416.00
2023-05-25T06:19:01.013Z,415.00
2023-05-25T06:20:01.290Z,410.00
2023-05-25T06:21:01.274Z,411.00
2023-05-25T06:22:01.279Z,413.00
2023-05-25T06:23:01.410Z,414.00
2023-05-25T06:24:01.477Z,425.00
2023-05-25T06:25:01.619Z,426.00
2023-05-25T06:26:01.720Z,421.00
2023-05-25T06:27:01.788Z,421.00
2023-05-25T06:28:01.916Z,418.00
2023-05-25T06:29:01.981Z,408.00
2023-05-25T06:30:02.100Z,408.00
2023-05-25T06:31:02.146Z,427.00
2023-05-25T06:32:02.902Z,423.00
2023-05-25T06:33:02.391Z,416.00
2023-05-25T06:34:02.515Z,430.00
2023-05-25T06:35:02.641Z,417.00
2023-05-25T06:36:02.861Z,413.00
2023-05-25T06:37:02.727Z,417.00
2023-05-25T06:38:02.834Z,412.00
2023-05-25T06:39:02.937Z,415.00
2023-05-25T06:40:03.015Z,417.00
2023-05-25T06:41:03.234Z,414.00
2023-05-25T06:42:03.315Z,425.00
2023-05-25T06:43:03.326Z,413.00
2023-05-25T06:44:03.603Z,422.00
2023-05-25T06:45:03.506Z,424.00
2023-05-25T06:46:03.584Z,412.00
2023-05-25T06:47:03.678Z,416.00
2023-05-25T06:48:04.430Z,420.00
2023-05-25T06:49:03.902Z,417.00
2023-05-25T06:50:04.380Z,419.00
2023-05-25T06:51:03.905Z,412.00
2023-05-25T06:52:04.005Z,410.00
2023-05-25T06:53:04.505Z,406.00
2023-05-25T06:54:04.093Z,428.00
2023-05-25T06:55:04.136Z,456.00
2023-05-25T06:56:04.202Z,419.00
2023-05-25T06:57:04.257Z,426.00
2023-05-25T06:58:04.326Z,423.00
2023-05-25T06:59:04.395Z,413.00
2023-05-25T07:00:07.414Z,412.00
2023-05-25T07:01:04.660Z,429.00
2023-05-25T07:02:04.608Z,422.00
2023-05-25T07:03:04.703Z,415.00
2023-05-25T07:04:04.752Z,432.00
2023-05-25T07:05:04.848Z,419.00
2023-05-25T07:06:04.886Z,423.00
2023-05-25T07:07:04.978Z,419.00
2023-05-25T07:08:05.889Z,412.00
2023-05-25T07:09:05.094Z,419.00
2023-05-25T07:10:05.175Z,422.00
2023-05-25T07:11:05.177Z,407.00
2023-05-25T07:12:05.248Z,414.00
2023-05-25T07:13:05.327Z,455.00
2023-05-25T07:14:05.386Z,425.00
2023-05-25T07:15:05.469Z,421.00
2023-05-25T07:16:05.600Z,422.00
2023-05-25T07:17:06.415Z,422.00
2023-05-25T07:18:05.763Z,436.00
2023-05-25T07:19:05.790Z,427.00
2023-05-25T07:20:06.527Z,418.00
2023-05-25T07:21:05.933Z,408.00
2023-05-25T07:22:06.049Z,425.00
2023-05-25T07:23:06.114Z,416.00
2023-05-25T07:24:06.249Z,422.00
2023-05-25T07:25:06.360Z,415.00
2023-05-25T07:26:06.479Z,401.00
2023-05-25T07:27:06.427Z,413.00
2023-05-25T07:28:06.532Z,409.00
2023-05-25T07:29:06.587Z,408.00
2023-05-25T07:30:06.623Z,416.00
2023-05-25T07:31:06.656Z,412.00
2023-05-25T07:32:06.678Z,412.00
2023-05-25T07:33:06.871Z,396.00
2023-05-25T07:34:06.948Z,420.00
2023-05-25T07:35:06.838Z,412.00
2023-05-25T07:36:07.070Z,420.00
2023-05-25T07:37:07.942Z,415.00
2023-05-25T07:38:07.958Z,421.00
2023-05-25T07:39:07.188Z,423.00
2023-05-25T07:40:07.934Z,417.00
2023-05-25T07:41:07.456Z,424.00
2023-05-25T07:42:07.374Z,425.00
2023-05-25T07:43:08.549Z,420.00
2023-05-25T07:44:07.582Z,450.00
2023-05-25T07:45:07.713Z,420.00
2023-05-25T07:46:07.792Z,423.00
2023-05-25T07:47:08.044Z,428.00
2023-05-25T07:48:08.117Z,430.00
2023-05-25T07:49:08.449Z,430.00
2023-05-25T07:50:09.040Z,437.00
2023-05-25T07:51:08.278Z,432.00
2023-05-25T07:52:08.413Z,429.00
2023-05-25T07:53:08.469Z,430.00
2023-05-25T07:54:08.635Z,423.00
2023-05-25T07:55:08.976Z,434.00
2023-05-25T07:56:10.648Z,426.00
2023-05-25T07:57:08.859Z,428.00
2023-05-25T07:58:09.952Z,429.00
2023-05-25T07:59:09.062Z,425.00
2023-05-25T08:00:09.172Z,424.00
2023-05-25T08:01:11.949Z,424.00
2023-05-25T08:02:09.340Z,421.00
2023-05-25T08:03:09.538Z,442.00
2023-05-25T08:04:09.688Z,424.00
2023-05-25T08:05:12.412Z,418.00
2023-05-25T08:06:09.534Z,422.00
2023-05-25T08:07:09.555Z,421.00
2023-05-25T08:08:10.412Z,421.00
2023-05-25T08:09:09.681Z,422.00
2023-05-25T08:10:10.480Z,421.00
2023-05-25T08:11:09.846Z,420.00
2023-05-25T08:13:09.813Z,428.00
2023-05-25T08:14:10.438Z,423.00
2023-05-25T08:15:09.912Z,418.00
2023-05-25T08:16:09.984Z,423.00
2023-05-25T08:17:10.090Z,424.00
2023-05-25T08:18:10.096Z,417.00
2023-05-25T08:19:10.153Z,418.00
2023-05-25T08:20:10.164Z,416.00
2023-05-25T08:21:10.195Z,409.00
2023-05-25T08:22:10.975Z,424.00
2023-05-25T08:23:10.278Z,421.00
2023-05-25T08:24:10.430Z,420.00
2023-05-25T08:25:10.395Z,417.00
2023-05-25T08:26:26.025Z,419.00
2023-05-25T08:27:11.531Z,416.00
2023-05-25T08:28:10.521Z,414.00
2023-05-25T08:29:10.579Z,418.00
2023-05-25T08:30:10.650Z,421.00
2023-05-25T08:31:11.462Z,418.00
2023-05-25T08:32:10.729Z,422.00
2023-05-25T08:33:10.879Z,420.00
2023-05-25T08:34:11.039Z,426.00
2023-05-25T08:35:10.895Z,417.00
2023-05-25T08:36:10.910Z,416.00
2023-05-25T08:37:11.013Z,422.00
2023-05-25T08:38:11.017Z,422.00
2023-05-25T08:39:11.216Z,418.00
2023-05-25T08:40:11.103Z,430.00
2023-05-25T08:41:11.127Z,410.00
2023-05-25T08:42:11.182Z,417.00
2023-05-25T08:43:11.191Z,418.00
2023-05-25T08:44:11.236Z,426.00
2023-05-25T08:45:22.592Z,420.00
2023-05-25T08:46:12.302Z,419.00
2023-05-25T08:47:11.326Z,421.00
2023-05-25T08:48:12.209Z,422.00
2023-05-25T08:49:11.559Z,422.00
2023-05-25T08:50:11.449Z,426.00
2023-05-25T08:51:11.939Z,421.00
2023-05-25T08:52:11.421Z,423.00
2023-05-25T08:53:11.443Z,423.00
2023-05-25T08:54:11.453Z,446.00
2023-05-25T08:55:11.504Z,431.00
2023-05-25T08:56:11.498Z,428.00
2023-05-25T08:57:11.569Z,425.00
2023-05-25T08:58:11.635Z,421.00
2023-05-25T08:59:11.717Z,423.00
2023-05-25T09:00:11.804Z,411.00
2023-05-25T09:01:11.880Z,410.00
2023-05-25T09:02:12.058Z,414.00
2023-05-25T09:03:12.161Z,420.00
2023-05-25T09:04:12.131Z,429.00
2023-05-25T09:05:12.165Z,427.00
2023-05-25T09:06:12.300Z,417.00
2023-05-25T09:07:12.278Z,409.00
2023-05-25T09:08:12.297Z,421.00
2023-05-25T09:09:12.308Z,431.00
2023-05-25T09:10:12.949Z,432.00
2023-05-25T09:11:16.266Z,419.00
2023-05-25T09:12:13.599Z,428.00
2023-05-25T09:13:20.431Z,409.00
2023-05-25T09:14:13.943Z,428.00
2023-05-25T09:15:12.573Z,404.00
2023-05-25T09:16:12.786Z,440.00
2023-05-25T09:17:12.677Z,419.00
2023-05-25T09:18:13.162Z,419.00
2023-05-25T09:19:12.717Z,425.00
2023-05-25T09:20:13.580Z,415.00
2023-05-25T09:21:12.785Z,413.00
2023-05-25T09:22:16.482Z,409.00
2023-05-25T09:23:12.833Z,408.00
2023-05-25T09:24:12.880Z,429.00
2023-05-25T09:25:12.927Z,419.00
2023-05-25T09:26:12.935Z,416.00
2023-05-25T09:27:13.031Z,437.00
2023-05-25T09:28:26.396Z,409.00
2023-05-25T09:29:14.039Z,419.00
2023-05-25T09:30:13.090Z,420.00
2023-05-25T09:31:13.089Z,419.00
2023-05-25T09:32:13.152Z,407.00
2023-05-25T09:33:13.157Z,413.00
2023-05-25T09:34:13.165Z,414.00
2023-05-25T09:35:13.213Z,418.00
2023-05-25T09:36:13.244Z,410.00
2023-05-25T09:37:13.310Z,410.00
2023-05-25T09:38:13.405Z,413.00
2023-05-25T09:39:13.541Z,418.00
2023-05-25T09:40:14.202Z,415.00
2023-05-25T09:41:13.951Z,421.00
2023-05-25T09:42:13.454Z,412.00
2023-05-25T09:43:19.482Z,413.00
2023-05-25T09:44:14.980Z,427.00
2023-05-25T09:45:13.312Z,437.00
2023-05-25T09:46:13.328Z,426.00
2023-05-25T09:47:14.148Z,429.00
2023-05-25T09:48:13.384Z,400.00
2023-05-25T09:49:13.417Z,417.00
2023-05-25T09:51:13.429Z,405.00
2023-05-25T09:52:13.423Z,412.00
2023-05-25T09:53:13.465Z,413.00
2023-05-25T09:54:13.466Z,406.00
2023-05-25T09:55:13.537Z,411.00
2023-05-25T09:56:13.604Z,412.00
2023-05-25T09:57:13.614Z,425.00
2023-05-25T09:58:13.661Z,396.00
2023-05-25T09:59:13.670Z,405.00
2023-05-25T10:00:13.791Z,390.00
2023-05-25T10:01:13.741Z,414.00
2023-05-25T10:02:13.729Z,416.00
2023-05-25T10:03:13.744Z,408.00
2023-05-25T10:04:13.784Z,410.00
2023-05-25T10:05:13.892Z,406.00
2023-05-25T10:06:13.752Z,419.00
2023-05-25T10:07:13.932Z,493.00
2023-05-25T10:08:13.737Z,416.00
2023-05-25T10:09:13.757Z,420.00
2023-05-25T10:10:13.763Z,421.00
2023-05-25T10:11:13.738Z,417.00
2023-05-25T10:12:13.768Z,405.00
2023-05-25T10:13:13.800Z,419.00
2023-05-25T10:14:15.478Z,414.00
2023-05-25T10:15:13.774Z,412.00
2023-05-25T10:16:13.877Z,417.00
2023-05-25T10:17:13.752Z,413.00
2023-05-25T10:18:13.801Z,407.00
2023-05-25T10:19:13.784Z,452.00
2023-05-25T10:20:13.854Z,402.00
2023-05-25T10:21:13.929Z,409.00
2023-05-25T10:22:13.756Z,421.00
2023-05-25T10:23:13.759Z,426.00
2023-05-25T10:24:13.733Z,411.00
2023-05-25T10:25:13.763Z,422.00
2023-05-25T10:26:13.808Z,426.00
2023-05-25T10:27:25.674Z,431.00
2023-05-25T10:28:14.823Z,418.00
2023-05-25T10:29:13.801Z,417.00
2023-05-25T10:30:13.786Z,415.00
2023-05-25T10:31:13.893Z,433.00
2023-05-25T10:32:13.782Z,421.00
2023-05-25T10:33:13.789Z,417.00
2023-05-25T10:34:13.808Z,430.00
2023-05-25T10:35:13.785Z,417.00
2023-05-25T10:36:13.873Z,411.00
2023-05-25T10:37:13.819Z,418.00
2023-05-25T10:38:13.815Z,413.00
2023-05-25T10:39:13.821Z,421.00
2023-05-25T10:40:13.809Z,420.00
2023-05-25T10:41:13.883Z,398.00
2023-05-25T10:42:13.862Z,416.00
2023-05-25T10:43:13.898Z,415.00
2023-05-25T10:44:13.906Z,422.00
2023-05-25T10:45:13.898Z,414.00
2023-05-25T10:46:13.889Z,410.00
2023-05-25T10:47:13.980Z,406.00
2023-05-25T10:48:13.923Z,408.00
2023-05-25T10:49:13.907Z,416.00
2023-05-25T10:50:14.041Z,388.00
2023-05-25T10:51:13.974Z,402.00
2023-05-25T10:52:13.982Z,411.00
2023-05-25T10:53:14.008Z,414.00
2023-05-25T10:54:14.049Z,414.00
2023-05-25T10:55:14.085Z,412.00
2023-05-25T10:56:14.114Z,415.00
2023-05-25T10:57:14.130Z,413.00
2023-05-25T10:58:14.157Z,435.00
2023-05-25T10:59:14.228Z,413.00
2023-05-25T11:00:14.295Z,419.00
2023-05-25T11:01:14.497Z,406.00
2023-05-25T11:02:14.430Z,402.00
2023-05-25T11:03:14.433Z,412.00
2023-05-25T11:04:14.678Z,402.00
2023-05-25T11:05:14.499Z,404.00
2023-05-25T11:06:14.577Z,399.00
2023-05-25T11:07:14.586Z,405.00
2023-05-25T11:08:14.649Z,410.00
2023-05-25T11:09:14.649Z,421.00
2023-05-25T11:10:14.657Z,397.00
2023-05-25T11:11:14.653Z,405.00
2023-05-25T11:12:14.656Z,410.00
2023-05-25T11:13:14.661Z,410.00
2023-05-25T11:14:14.695Z,414.00
2023-05-25T11:15:15.003Z,408.00
2023-05-25T11:16:14.749Z,412.00
2023-05-25T11:17:15.459Z,413.00
2023-05-25T11:18:14.734Z,414.00
2023-05-25T11:19:14.749Z,404.00
2023-05-25T11:20:15.552Z,408.00
2023-05-25T11:21:14.787Z,408.00
2023-05-25T11:22:14.812Z,416.00
2023-05-25T11:23:14.849Z,406.00
2023-05-25T11:24:14.906Z,419.00
2023-05-25T11:25:14.895Z,422.00
2023-05-25T11:26:14.899Z,415.00
2023-05-25T11:27:14.884Z,416.00
2023-05-25T11:28:14.932Z,421.00
2023-05-25T11:29:15.153Z,416.00
2023-05-25T11:30:15.323Z,417.00
2023-05-25T11:31:15.024Z,414.00
2023-05-25T11:32:15.006Z,414.00
2023-05-25T11:33:15.077Z,412.00
2023-05-25T11:34:15.557Z,416.00
2023-05-25T11:35:15.216Z,417.00
2023-05-25T11:36:15.083Z,414.00
2023-05-25T11:37:15.107Z,419.00
2023-05-25T11:38:15.192Z,426.00
2023-05-25T11:39:22.473Z,413.00
2023-05-25T11:40:16.274Z,422.00
2023-05-25T11:41:15.285Z,419.00
2023-05-25T11:42:15.327Z,428.00
2023-05-25T11:43:15.358Z,426.00
2023-05-25T11:44:15.444Z,428.00
2023-05-25T11:45:15.466Z,421.00
2023-05-25T11:46:15.567Z,424.00
2023-05-25T11:47:15.539Z,408.00
2023-05-25T11:48:15.621Z,416.00
2023-05-25T11:49:15.606Z,420.00
2023-05-25T11:50:15.700Z,418.00
2023-05-25T11:51:15.683Z,423.00
2023-05-25T11:52:15.719Z,414.00
2023-05-25T11:53:15.750Z,413.00
2023-05-25T11:54:15.768Z,412.00
2023-05-25T11:55:15.798Z,415.00
2023-05-25T11:56:27.091Z,415.00
2023-05-25T11:57:17.490Z,416.00
2023-05-25T11:58:15.930Z,423.00
2023-05-25T11:59:15.958Z,417.00
2023-05-25T12:00:15.981Z,427.00
2023-05-25T12:01:16.051Z,425.00
2023-05-25T12:02:16.077Z,420.00
2023-05-25T12:03:16.193Z,418.00
2023-05-25T12:04:16.217Z,472.00
2023-05-25T12:05:16.187Z,422.00
2023-05-25T12:06:16.211Z,418.00
2023-05-25T12:07:16.248Z,415.00
2023-05-25T12:08:16.354Z,412.00
2023-05-25T12:09:16.486Z,405.00
2023-05-25T12:10:16.365Z,407.00
2023-05-25T12:11:16.420Z,407.00
2023-05-25T12:12:16.414Z,409.00
2023-05-25T12:13:16.513Z,412.00
2023-05-25T12:14:16.546Z,407.00
2023-05-25T12:15:19.092Z,407.00
2023-05-25T12:16:16.401Z,405.00
2023-05-25T12:17:16.581Z,406.00
2023-05-25T12:18:16.354Z,410.00
2023-05-25T12:19:16.380Z,405.00
2023-05-25T12:20:16.418Z,423.00
2023-05-25T12:21:16.419Z,418.00
2023-05-25T12:22:16.510Z,416.00
2023-05-25T12:23:16.572Z,416.00
2023-05-25T12:24:16.539Z,413.00
2023-05-25T12:25:16.552Z,411.00
2023-05-25T12:26:16.555Z,414.00
2023-05-25T12:27:16.628Z,414.00
2023-05-25T12:28:16.621Z,418.00
2023-05-25T12:29:16.672Z,414.00
2023-05-25T12:30:16.732Z,416.00
2023-05-25T12:31:16.745Z,435.00